Latest Weather Observations for Esperance Airport

IDW60801

Issued at 12:02 pm WST Wednesday 28 January 2015 (issued every 30 minutes, with the page automatically refreshed every 10 minutes)

About weather observations | Map of weather stations | Latest weather observations for WA | Other Formats
Station Details ID: 009542 Name: ESPERANCE AERO Lat: -33.68 Lon: 121.83 Height: 142.0 m
Data from the previous 72 hours. | See also: Recent months at Esperance Airport
Date/Time
WST
Temp
°C
App
Temp
°C
Dew
Point
Rel
Hum
%
Delta-T
°C
Wind Press
QNH
hPa
Press
MSL
hPa
Rain
since 9 am
mm
Dir
 
Spd
km/h
Gust
km/h
Spd
kts
Gust
kts
28/12:00pm 32.8 28.7 6.2 19 14.4 NE 17 26 9 14 1013.4 1012.9 0.0
28/11:30am 30.7 26.4 7.2 23 12.8 NE 19 30 10 16 1013.7 1013.2 0.0
28/11:00am 30.4 26.2 8.2 25 12.3 NE 20 32 11 17 1014.0 1013.5 0.0
28/10:00am 27.4 22.3 7.8 29 10.6 NNE 24 33 13 18 1014.4 1013.9 0.0
28/09:30am 26.6 21.7 8.6 32 9.8 NNE 24 39 13 21 1014.6 1014.1 0.0
28/09:00am 24.7 19.7 8.2 35 8.9 NNE 24 35 13 19 1014.8 1014.3 0.0
28/08:30am 23.3 18.2 9.3 41 7.6 NNE 26 37 14 20 1015.0 1014.5 0.0
28/08:00am 21.6 16.4 10.1 48 6.3 NNE 28 41 15 22 1015.1 1014.6 0.0
28/07:30am 20.3 15.4 11.2 56 5.0 NNE 28 43 15 23 1015.1 1014.6 0.0
28/07:00am 18.5 12.9 11.6 64 3.8 NNE 32 46 17 25 1015.3 1014.8 0.0
28/06:52am 18.4 13.6 11.5 64 3.8 NNE 28 46 15 25 1015.4 1014.9 0.0
28/06:30am 17.6 12.8 11.8 69 3.2 NNE 28 39 15 21 1015.2 1014.7 0.0
28/06:00am 16.6 12.4 12.4 76 2.3 NNE 26 39 14 21 1014.8 1014.3 0.0
28/05:30am 16.0 12.6 12.6 80 1.9 NNE 22 33 12 18 1014.6 1014.1 0.0
28/05:00am 15.9 12.2 12.6 81 1.8 NNE 24 35 13 19 1014.2 1013.7 0.0
28/04:30am 16.2 12.6 12.9 81 1.8 NNE 24 37 13 20 1013.9 1013.4 0.0
28/04:00am 16.4 12.8 13.1 81 1.9 NNE 24 33 13 18 1013.6 1013.1 0.0
28/03:46am 16.6 12.3 13.1 80 2.0 NNE 28 48 15 26 1013.3 1012.8 0.0
28/03:30am 16.5 12.9 13.0 80 2.0 NNE 24 37 13 20 1013.3 1012.8 0.0
28/03:00am 16.7 12.4 13.2 80 2.0 NNE 28 35 15 19 1013.1 1012.6 0.0
28/02:30am 16.9 12.7 13.6 81 1.9 NNE 28 39 15 21 1013.0 1012.5 0.0
28/02:00am 17.0 13.3 13.9 82 1.8 NE 26 39 14 21 1013.1 1012.6 0.0
28/01:30am 17.0 13.7 14.1 83 1.7 NE 24 37 13 20 1012.9 1012.4 0.0
28/01:00am 17.0 13.7 14.1 83 1.7 NE 24 35 13 19 1013.3 1012.8 0.0
28/12:30am 17.2 13.9 14.1 82 1.8 NE 24 43 13 23 1013.6 1013.1 0.0
28/12:00am 17.4 13.8 14.1 81 1.9 ENE 26 37 14 20 1013.6 1013.1 0.0
 
Date/Time
WST
Temp
°C
App
Temp
°C
Dew
Point
Rel
Hum
%
Delta-T
°C
Wind Press
QNH
hPa
Press
MSL
hPa
Rain
since 9 am
mm
Dir
 
Spd
km/h
Gust
km/h
Spd
kts
Gust
kts
27/11:30pm 17.6 14.7 13.9 79 2.1 ENE 22 33 12 18 1014.1 1013.6 0.0
27/11:00pm 17.9 14.5 13.8 77 2.3 ENE 24 35 13 19 1014.4 1013.9 0.0
27/10:30pm 18.2 14.8 13.7 75 2.6 ENE 24 39 13 21 1014.5 1014.0 0.0
27/10:00pm 18.7 15.0 13.8 73 2.8 ENE 26 41 14 22 1014.5 1014.0 0.0
27/09:31pm 19.2 15.0 13.4 69 3.3 ENE 28 48 15 26 1014.5 1014.0 0.0
27/09:30pm 19.2 15.3 13.4 69 3.3 ENE 26 39 14 21 1014.6 1014.1 0.0
27/09:00pm 20.0 15.6 13.0 64 4.0 ENE 28 43 15 23 1014.6 1014.1 0.0
27/08:30pm 21.1 16.7 13.0 60 4.6 ENE 28 41 15 22 1014.3 1013.8 0.0
27/08:00pm 22.0 18.0 13.1 57 5.1 E 26 43 14 23 1014.1 1013.6 0.0
27/07:30pm 23.2 18.2 13.4 54 5.7 E 32 43 17 23 1013.7 1013.2 0.0
27/07:00pm 25.2 20.4 12.8 46 7.2 E 30 41 16 22 1013.3 1012.8 0.0
27/06:30pm 27.1 23.0 12.7 41 8.4 E 26 39 14 21 1012.6 1012.1 0.0
27/06:00pm 27.2 23.6 14.2 44 7.8 SE 26 33 14 18 1012.1 1011.6 0.0
27/05:30pm 27.8 23.7 14.8 45 7.9 SE 30 35 16 19 1011.8 1011.3 0.0
27/05:00pm 28.7 24.4 14.5 42 8.6 SE 30 41 16 22 1011.5 1011.0 0.0
27/04:30pm 29.8 25.4 14.0 38 9.6 SE 30 41 16 22 1011.5 1011.0 0.0
27/04:00pm 30.1 25.6 13.8 37 9.9 SE 30 39 16 21 1011.5 1011.0 0.0
27/03:30pm 30.6 27.4 13.0 34 10.5 SE 22 37 12 20 1012.0 1011.5 0.0
27/03:00pm 32.6 29.0 6.7 20 14.2 NE 15 26 8 14 1012.0 1011.5 0.0
27/02:30pm 31.9 28.3 6.9 21 13.6 ENE 15 22 8 12 1012.3 1011.8 0.0
27/02:00pm 30.9 27.4 7.4 23 12.9 ENE 15 26 8 14 1012.7 1012.2 0.0
27/01:30pm 30.9 27.1 7.4 23 12.9 NE 17 30 9 16 1013.0 1012.5 0.0
27/01:00pm 30.2 25.7 6.8 23 12.6 NE 20 32 11 17 1013.4 1012.9 0.0
27/12:30pm 30.7 27.4 9.6 27 12.0 NE 17 28 9 15 1013.9 1013.4 0.0
27/12:00pm 28.8 24.8 9.0 29 11.0 NE 20 32 11 17 1014.4 1013.9 0.0
27/11:30am 28.8 25.2 10.0 31 10.6 NNE 19 30 10 16 1014.8 1014.3 0.0
27/11:00am 26.7 23.0 10.0 35 9.3 NE 20 33 11 18 1015.3 1014.8 0.0
27/10:30am 26.4 22.5 10.9 38 8.8 NE 22 37 12 20 1015.5 1015.0 0.0
27/10:00am 25.4 21.2 11.2 41 8.1 NE 24 35 13 19 1015.7 1015.2 0.0
27/09:30am 23.8 19.3 11.5 46 7.0 NE 26 39 14 21 1016.0 1015.5 0.0
27/09:00am 23.0 18.7 12.0 50 6.2 NE 26 41 14 22 1016.2 1015.7 0.0
27/08:30am 21.6 17.3 11.9 54 5.5 NE 26 37 14 20 1016.3 1015.8 0.0
27/08:00am 20.5 16.2 12.0 58 4.8 NE 26 41 14 22 1016.5 1015.9 0.0
27/07:30am 18.9 14.1 11.5 62 4.1 NE 28 44 15 24 1016.7 1016.1 0.0
27/07:00am 17.7 13.4 12.2 70 3.1 NE 26 39 14 21 1016.7 1016.1 0.0
27/06:30am 15.6 12.5 12.2 80 1.9 NE 20 32 11 17 1016.8 1016.2 0.0
27/06:00am 14.2 11.1 11.7 85 1.3 NE 19 26 10 14 1016.7 1016.1 0.0
27/05:30am 13.1 10.3 11.2 88 1.0 NE 17 24 9 13 1016.5 1015.9 0.0
27/05:00am 12.9 10.0 11.0 88 1.0 NE 17 24 9 13 1016.3 1015.8 0.0
27/04:30am 12.8 9.9 10.9 88 1.0 ENE 17 22 9 12 1016.1 1015.6 0.0
27/04:00am 13.2 10.3 11.1 87 1.1 ENE 17 22 9 12 1015.9 1015.4 0.0
27/03:30am 13.5 10.6 11.0 85 1.3 ENE 17 26 9 14 1016.0 1015.5 0.0
27/03:00am 14.2 11.4 11.4 83 1.5 NE 17 24 9 13 1016.1 1015.6 0.0
27/02:30am 14.6 11.8 11.4 81 1.7 NE 17 30 9 16 1016.1 1015.6 0.0
27/02:00am 14.7 11.6 11.5 81 1.7 NE 19 26 10 14 1016.2 1015.7 0.0
27/01:30am 14.8 12.0 11.4 80 1.8 ENE 17 24 9 13 1016.2 1015.7 0.0
27/01:00am 15.2 12.0 11.4 78 2.0 ENE 19 28 10 15 1016.5 1015.9 0.0
27/12:30am 15.7 12.3 11.3 75 2.4 NE 20 32 11 17 1016.6 1016.0 0.0
27/12:00am 15.9 12.5 11.3 74 2.5 NE 20 35 11 19 1016.6 1016.0 0.0
 
Date/Time
WST
Temp
°C
App
Temp
°C
Dew
Point
Rel
Hum
%
Delta-T
°C
Wind Press
QNH
hPa
Press
MSL
hPa
Rain
since 9 am
mm
Dir
 
Spd
km/h
Gust
km/h
Spd
kts
Gust
kts
26/11:30pm 16.1 12.0 11.3 73 2.6 ENE 24 37 13 20 1016.6 1016.0 0.0
26/11:00pm 16.3 12.5 11.0 71 2.9 NE 22 32 12 17 1016.8 1016.2 0.0
26/10:30pm 16.6 12.7 10.9 69 3.1 ENE 22 33 12 18 1016.7 1016.1 0.0
26/10:00pm 17.0 12.7 10.8 67 3.3 ENE 24 33 13 18 1016.6 1016.0 0.0
26/09:44pm 17.2 12.2 10.8 66 3.5 ENE 28 46 15 25 1016.7 1016.1 0.0
26/09:30pm 17.4 12.4 10.8 65 3.6 ENE 28 39 15 21 1016.5 1015.9 0.0
26/09:00pm 17.9 13.5 10.5 62 4.0 E 24 35 13 19 1016.5 1015.9 0.0
26/08:30pm 18.7 14.2 10.0 57 4.7 E 24 32 13 17 1016.2 1015.7 0.0
26/08:00pm 19.6 15.1 10.0 54 5.2 E 24 35 13 19 1015.9 1015.4 0.0
26/07:30pm 20.7 15.5 10.2 51 5.7 E 28 43 15 23 1015.7 1015.2 0.0
26/07:00pm 19.5 15.2 12.0 62 4.2 ESE 26 32 14 17 1015.5 1015.0 0.0
26/06:30pm 20.9 15.8 11.8 56 5.1 ESE 30 37 16 20 1015.4 1014.9 0.0
26/06:00pm 21.8 16.1 11.8 53 5.6 ESE 33 44 18 24 1015.3 1014.8 0.0
26/05:30pm 22.6 17.3 12.5 53 5.8 SE 32 39 17 21 1015.2 1014.7 0.0
26/05:00pm 23.4 17.9 12.4 50 6.3 SE 33 44 18 24 1015.3 1014.8 0.0
26/04:30pm 23.4 16.9 11.8 48 6.6 ESE 37 48 20 26 1015.5 1015.0 0.0
26/04:00pm 23.8 17.0 11.8 47 6.8 SE 39 48 21 26 1015.7 1015.2 0.0
26/03:30pm 24.6 18.0 11.2 43 7.6 SE 37 46 20 25 1015.9 1015.4 0.0
26/03:00pm 24.8 18.0 10.7 41 7.9 ESE 37 46 20 25 1016.1 1015.6 0.0
26/02:30pm 24.6 17.1 10.8 42 7.7 ESE 41 52 22 28 1016.3 1015.8 0.0
26/02:00pm 25.6 19.4 11.4 41 8.1 SE 35 46 19 25 1016.6 1016.0 0.0
26/01:30pm 26.1 20.3 11.4 39 8.4 SE 33 48 18 26 1016.8 1016.2 0.0
26/01:00pm 25.8 19.9 9.2 35 9.1 ESE 30 43 16 23 1017.1 1016.5 0.0
26/12:30pm 25.9 21.4 7.0 30 10.0 ENE 20 30 11 16 1017.5 1016.9 0.0
26/12:00pm 25.3 21.1 7.4 32 9.5 ENE 19 33 10 18 1018.1 1017.6 0.0
26/11:30am 24.5 20.3 7.6 34 9.0 E 19 28 10 15 1018.6 1018.1 0.0
26/11:00am 24.1 19.9 8.1 36 8.5 ENE 20 32 11 17 1019.0 1018.5 0.0
26/10:30am 23.1 19.1 8.4 39 7.8 ENE 19 28 10 15 1019.4 1018.9 0.0
26/10:00am 22.1 18.6 8.9 43 7.1 ENE 17 28 9 15 1019.9 1019.4 0.0
26/09:30am 21.5 17.7 9.1 45 6.6 ENE 19 26 10 14 1020.2 1019.7 0.0
26/09:00am 20.2 16.3 8.8 48 6.0 E 19 30 10 16 1020.5 1020.0 0.0
26/08:30am 19.2 14.8 8.8 51 5.5 ENE 22 37 12 20 1020.9 1020.4 0.0
26/08:00am 18.6 14.5 8.6 52 5.2 E 20 28 11 15 1021.1 1020.6 0.0
26/07:30am 18.1 14.6 8.7 54 4.9 E 17 22 9 12 1021.4 1020.9 0.0
26/07:00am 16.6 13.9 9.1 61 3.9 E 13 19 7 10 1021.5 1021.0 0.0
26/06:30am 13.9 11.5 8.7 71 2.6 ENE 11 17 6 9 1021.3 1020.8 0.0
26/06:00am 13.2 11.2 8.5 73 2.4 ENE 9 15 5 8 1021.0 1020.5 0.0
26/05:30am 12.2 9.7 8.3 77 1.9 ENE 11 15 6 8 1020.7 1020.2 0.0
26/05:00am 12.0 9.5 8.1 77 1.9 E 11 17 6 9 1020.8 1020.3 0.0
26/04:30am 12.2 10.1 8.3 77 1.9 E 9 15 5 8 1020.4 1019.9 0.0
26/04:00am 11.9 9.7 8.0 77 1.9 E 9 13 5 7 1020.2 1019.7 0.0
26/03:30am 12.0 9.9 8.1 77 1.9 ENE 9 13 5 7 1020.2 1019.7 0.0
26/03:00am 12.1 10.0 8.2 77 1.9 ENE 9 13 5 7 1020.2 1019.7 0.0
26/02:30am 12.2 10.1 8.3 77 1.9 ENE 9 13 5 7 1020.1 1019.6 0.0
26/02:00am 12.2 10.1 8.3 77 1.9 ENE 9 13 5 7 1020.1 1019.6 0.0
26/01:30am 12.2 10.1 8.3 77 1.9 ENE 9 13 5 7 1020.3 1019.8 0.0
26/01:00am 12.6 10.5 8.3 75 2.1 ENE 9 13 5 7 1020.2 1019.7 0.0
26/12:30am 13.0 11.0 8.5 74 2.3 ENE 9 13 5 7 1020.1 1019.6 0.0
26/12:00am 13.8 11.1 8.8 72 2.5 ENE 13 19 7 10 1020.2 1019.7 0.0
 
Date/Time
WST
Temp
°C
App
Temp
°C
Dew
Point
Rel
Hum
%
Delta-T
°C
Wind Press
QNH
hPa
Press
MSL
hPa
Rain
since 9 am
mm
Dir
 
Spd
km/h
Gust
km/h
Spd
kts
Gust
kts
25/11:30pm 14.1 11.1 9.1 72 2.6 ENE 15 22 8 12 1020.3 1019.8 0.0
25/11:00pm 14.1 11.5 9.3 73 2.5 E 13 17 7 9 1020.2 1019.7 0.0
25/10:30pm 14.5 11.2 9.7 73 2.5 E 17 24 9 13 1020.3 1019.8 0.0
25/10:00pm 14.8 11.6 9.8 72 2.6 E 17 22 9 12 1020.3 1019.8 0.0
25/09:30pm 15.1 11.9 10.1 72 2.6 E 17 22 9 12 1020.3 1019.8 0.0
25/09:00pm 14.9 11.1 9.9 72 2.6 ESE 20 24 11 13 1020.2 1019.7 0.0
25/08:30pm 15.0 11.7 9.6 70 2.8 ESE 17 22 9 12 1020.1 1019.6 0.0
25/08:00pm 15.6 11.3 9.3 66 3.3 ESE 22 28 12 15 1019.9 1019.4 0.0
25/07:30pm 16.1 10.8 8.6 61 3.9 ESE 26 37 14 20 1019.8 1019.3 0.0
25/07:00pm 16.7 11.2 9.1 61 3.9 ESE 28 35 15 19 1019.5 1019.0 0.0
25/06:30pm 17.6 11.4 9.5 59 4.3 ESE 32 43 17 23 1019.2 1018.7 0.0
25/06:00pm 18.7 12.5 9.5 55 4.9 SE 32 41 17 22 1018.8 1018.3 0.0
25/05:30pm 19.8 13.6 9.4 51 5.5 SE 32 43 17 23 1018.7 1018.2 0.0
25/05:00pm 19.7 13.4 9.6 52 5.4 SSE 33 48 18 26 1018.4 1017.9 0.0
25/04:30pm 20.7 14.5 10.2 51 5.7 SE 33 44 18 24 1018.6 1018.1 0.0
25/04:00pm 20.9 14.8 10.4 51 5.7 SE 33 46 18 25 1018.7 1018.2 0.0
25/03:30pm 21.2 15.1 10.4 50 5.9 SSE 33 50 18 27 1019.0 1018.5 0.0
25/03:00pm 22.5 16.6 10.6 47 6.6 SSE 32 41 17 22 1019.2 1018.7 0.0
25/02:30pm 22.2 16.1 9.7 45 6.8 SSE 32 43 17 23 1019.2 1018.7 0.0
25/02:00pm 22.4 17.2 10.2 46 6.7 SE 28 39 15 21 1019.6 1019.1 0.0
25/01:30pm 22.2 16.9 10.0 46 6.7 SSE 28 41 15 22 1019.6 1019.1 0.0
25/01:00pm 22.6 17.8 10.4 46 6.7 SE 26 35 14 19 1019.7 1019.2 0.0
25/12:30pm 22.2 16.8 9.4 44 6.9 SSE 28 37 15 20 1019.9 1019.4 0.0

Other Formats:

Comma delimited format used in spreadsheet applications
http://www.bom.gov.au/fwo/IDW60801/IDW60801.95638.axf

JavaScript Object Notation format (JSON) in row-major order
http://www.bom.gov.au/fwo/IDW60801/IDW60801.95638.json